Troy, NY

10:00 AM EST on February 08, 2016 (GMT -0500)
Brunswick, NY | | Change Station
CLOSE
Current Station
Personal Weather Station
Location: Troy, NY
Elevation: 853 ft
Nearby Weather Stations

Elev 853 ft 42.77 °N, 73.58 °W | Updated 26 seconds ago

Mostly Cloudy
Mostly Cloudy
29.4 °F
Feels Like 22 °F
N
8.0
Wind Variable Wind from NE
Gusts 14.0 mph

Today
High -- | Low -- °F
--% Chance of Precip.
Yesterday
High -- | Low -- °F
Precip. -- in
Pressure 29.89 in
Visibility 10.0 miles
Clouds Few 3000 ft
Scattered Clouds 12000 ft
Mostly Cloudy 16000 ft
Overcast 26000 ft
Windchill 22 °F
Dew Point 10 °F
Humidity 43%
Rainfall 0.00 in
Snow Depth Not available.
7:01 AM 5:16 PM
Waning Crescent, 0% visible
METAR KALB 081451Z 04007KT 10SM FEW030 SCT120 BKN160 OVC260 00/M12 A2988 RMK AO2 SLP122 BINOVC T00001117 50005
Pressure 29.89 in
Visibility 10.0 miles
Clouds Few 3000 ft
Scattered Clouds 12000 ft
Mostly Cloudy 16000 ft
Overcast 26000 ft
Windchill 22 °F
Dew Point 10 °F
Humidity 43%
Rainfall 0.00 in
Snow Depth Not available.
7:01 AM 5:16 PM
Waning Crescent, 0% visible
METAR KALB 081451Z 04007KT 10SM FEW030 SCT120 BKN160 OVC260 00/M12 A2988 RMK AO2 SLP122 BINOVC T00001117 50005

10-Day Weather Forecast

Almanac

Astronomy

Feb. 08, 2016 Rise Set
Actual Time
Civil Twilight
Nautical Twilight
Astronomical Twilight
Moon
Length of Visible Light
Length of Day
Tomorrow will be .
, % of the Moon is Illuminated

Today's Extremes

State Highs State Lows

Community

WunderPhotos

Upload Photos

1,891,437 photos uploaded!

WunderBlog® & News

Nearby

Air Quality

  Air Quality AQ Index Pollutant
Not available.

Snow Depth

Station Depth Elevation

Earthquake Activity

City Distance Mag. Time & Date
Minimum magnitude displayed is 2.5.

Coastal Water Temperatures

Place Temperature

Stations

Nearby Weather Stations

Station Location Temp. Windchill Dew Point Humidity Wind Precip. Elev Updated Type
                   

Watches & Warnings

There are currently no watches in effect.